createdAt,value
2018-12-12T15:48:50.663Z,1020.01
2018-12-12T15:49:50.573Z,1019.97
2018-12-12T15:50:50.566Z,1020.03
2018-12-12T15:51:50.558Z,1020.01
2018-12-12T15:52:50.546Z,1020.03
2018-12-12T15:53:50.587Z,1020.00
2018-12-12T15:54:50.523Z,1020.00
2018-12-12T15:55:50.506Z,1019.96
2018-12-12T15:56:50.497Z,1020.03
2018-12-12T15:57:50.539Z,1020.05
2018-12-12T15:58:50.488Z,1020.04
2018-12-12T16:00:28.243Z,1020.05
2018-12-12T16:01:28.228Z,1020.02
2018-12-12T16:02:14.897Z,1020.04
2018-12-12T16:03:14.889Z,1020.07
2018-12-12T16:04:14.896Z,1020.12
2018-12-12T16:05:14.849Z,1020.13
2018-12-12T16:06:14.836Z,1020.10
2018-12-12T16:07:14.835Z,1020.16
2018-12-12T16:08:14.840Z,1020.07
2018-12-12T16:09:14.866Z,1020.08
2018-12-12T16:10:14.787Z,1020.11
2018-12-12T16:11:14.798Z,1020.10
2018-12-12T16:12:14.771Z,1020.08
2018-12-12T16:13:14.793Z,1020.14
2018-12-12T16:14:14.745Z,1020.12
2018-12-12T16:15:14.738Z,1020.10
2018-12-12T16:16:14.723Z,1020.08
2018-12-12T16:17:14.711Z,1020.11
2018-12-12T16:18:14.727Z,1020.11
2018-12-12T16:19:14.701Z,1020.13
2018-12-12T16:20:14.690Z,1020.10
2018-12-12T16:21:14.675Z,1020.05
2018-12-12T16:22:14.659Z,1020.06
2018-12-12T16:23:14.668Z,1020.03
2018-12-12T16:24:14.635Z,1020.08
2018-12-12T16:25:14.628Z,1020.06
2018-12-12T16:26:14.626Z,1020.08
2018-12-12T16:27:14.611Z,1020.09
2018-12-12T16:28:14.617Z,1020.08
2018-12-12T16:29:14.587Z,1020.04
2018-12-12T16:30:14.583Z,1020.07
2018-12-12T16:31:14.601Z,1020.02
2018-12-12T16:32:14.556Z,1020.01
2018-12-12T16:33:14.569Z,1020.03
2018-12-12T16:34:14.529Z,1020.03
2018-12-12T16:35:14.518Z,1020.09
2018-12-12T16:36:14.510Z,1020.12
2018-12-12T16:37:14.497Z,1020.10
2018-12-12T16:38:14.519Z,1020.09
2018-12-12T16:39:14.503Z,1020.14
2018-12-12T16:40:14.470Z,1020.12
2018-12-12T16:41:14.459Z,1020.14
2018-12-12T16:42:14.455Z,1020.13
2018-12-12T16:43:14.469Z,1020.18
2018-12-12T16:44:14.458Z,1020.17
2018-12-12T16:45:14.415Z,1020.17
2018-12-12T16:46:14.401Z,1020.13
2018-12-12T16:47:14.387Z,1020.13
2018-12-12T16:48:14.381Z,1020.15
2018-12-12T16:49:14.389Z,1020.20
2018-12-12T16:50:14.365Z,1020.22
2018-12-12T16:51:14.376Z,1020.21
2018-12-12T16:52:14.341Z,1020.21
2018-12-12T16:53:14.356Z,1020.24
2018-12-12T16:54:14.336Z,1020.21
2018-12-12T16:55:14.309Z,1020.22
2018-12-12T16:56:14.293Z,1020.21
2018-12-12T16:57:14.294Z,1020.23
2018-12-12T16:58:14.295Z,1020.23
2018-12-12T16:59:14.262Z,1020.25
2018-12-12T17:00:14.248Z,1020.27
2018-12-12T17:01:14.286Z,1020.30
2018-12-12T17:02:14.233Z,1020.30
2018-12-12T17:03:14.246Z,1020.30
2018-12-12T17:04:14.212Z,1020.29
2018-12-12T17:05:14.198Z,1020.31
2018-12-12T17:06:14.187Z,1020.31
2018-12-12T17:07:14.172Z,1020.35
2018-12-12T17:08:14.184Z,1020.31
2018-12-12T17:09:14.167Z,1020.31
2018-12-12T17:10:14.193Z,1020.35
2018-12-12T17:11:14.138Z,1020.35
2018-12-12T17:12:14.123Z,1020.30
2018-12-12T17:13:14.133Z,1020.28
2018-12-12T17:14:14.095Z,1020.31
2018-12-12T17:15:14.085Z,1020.37
2018-12-12T17:16:14.081Z,1020.33
2018-12-12T17:17:14.068Z,1020.36
2018-12-12T17:18:14.079Z,1020.33
2018-12-12T17:19:14.044Z,1020.31
2018-12-12T17:20:14.029Z,1020.32
2018-12-12T17:21:14.019Z,1020.34
2018-12-12T17:22:14.037Z,1020.31
2018-12-12T17:23:14.027Z,1020.27
2018-12-12T17:24:13.997Z,1020.30
2018-12-12T17:25:13.981Z,1020.29
2018-12-12T17:26:13.967Z,1020.31
2018-12-12T17:27:13.957Z,1020.30
2018-12-12T17:28:13.972Z,1020.32
2018-12-12T17:29:13.934Z,1020.35
2018-12-12T17:30:13.930Z,1020.39
2018-12-12T17:31:13.920Z,1020.33
2018-12-12T17:32:13.901Z,1020.39
2018-12-12T17:33:13.912Z,1020.38
2018-12-12T17:34:13.890Z,1020.39
2018-12-12T17:35:13.874Z,1020.34
2018-12-12T17:36:13.865Z,1020.38
2018-12-12T17:37:13.852Z,1020.41
2018-12-12T17:38:13.864Z,1020.32
2018-12-12T17:39:13.832Z,1020.39
2018-12-12T17:40:13.816Z,1020.37
2018-12-12T17:41:13.805Z,1020.34
2018-12-12T17:42:13.815Z,1020.37
2018-12-12T17:43:13.826Z,1020.38
2018-12-12T17:44:13.781Z,1020.37
2018-12-12T17:45:13.785Z,1020.38
2018-12-12T17:46:13.750Z,1020.43
2018-12-12T17:47:13.740Z,1020.40
2018-12-12T17:48:13.759Z,1020.38
2018-12-12T17:49:13.768Z,1020.39
2018-12-12T17:50:13.711Z,1020.38
2018-12-12T17:51:13.696Z,1020.38
2018-12-12T17:52:13.685Z,1020.38
2018-12-12T17:53:13.718Z,1020.40
2018-12-12T17:54:13.689Z,1020.37
2018-12-12T17:55:13.662Z,1020.38
2018-12-12T17:56:13.649Z,1020.39
2018-12-12T17:57:13.638Z,1020.41
2018-12-12T17:58:13.647Z,1020.39
2018-12-12T17:59:13.617Z,1020.41
2018-12-12T18:00:13.642Z,1020.41
2018-12-12T18:01:13.590Z,1020.46
2018-12-12T18:02:13.625Z,1020.45
2018-12-12T18:03:13.596Z,1020.46
2018-12-12T18:04:13.591Z,1020.44
2018-12-12T18:05:15.385Z,1020.46
2018-12-12T18:06:13.555Z,1020.50
2018-12-12T18:07:13.584Z,1020.50
2018-12-12T18:08:13.525Z,1020.51
2018-12-12T18:09:13.539Z,1020.49
2018-12-12T18:10:13.496Z,1020.45
2018-12-12T18:11:13.508Z,1020.44
2018-12-12T18:12:13.487Z,1020.42
2018-12-12T18:13:13.559Z,1020.44
2018-12-12T18:14:13.508Z,1020.48
2018-12-12T18:15:13.448Z,1020.43
2018-12-12T18:16:13.431Z,1020.49
2018-12-12T18:17:13.423Z,1020.52
2018-12-12T18:18:13.405Z,1020.52
2018-12-12T18:19:13.424Z,1020.50
2018-12-12T18:20:13.400Z,1020.50
2018-12-12T18:21:13.388Z,1020.48
2018-12-12T18:22:13.370Z,1020.49
2018-12-12T18:23:13.362Z,1020.44
2018-12-12T18:24:13.372Z,1020.49
2018-12-12T18:25:13.351Z,1020.47
2018-12-12T18:26:13.327Z,1020.52
2018-12-12T18:27:13.330Z,1020.53
2018-12-12T18:28:13.359Z,1020.53
2018-12-12T18:29:13.322Z,1020.49
2018-12-12T18:30:13.298Z,1020.52
2018-12-12T18:31:13.297Z,1020.55
2018-12-12T18:32:13.260Z,1020.57
2018-12-12T18:33:13.251Z,1020.58
2018-12-12T18:34:13.265Z,1020.56
2018-12-12T18:35:13.234Z,1020.56
2018-12-12T18:36:13.221Z,1020.60
2018-12-12T18:37:13.208Z,1020.61
2018-12-12T18:38:13.199Z,1020.60
2018-12-12T18:39:13.213Z,1020.66
2018-12-12T18:40:13.180Z,1020.64
2018-12-12T18:41:13.187Z,1020.63
2018-12-12T18:42:13.149Z,1020.66
2018-12-12T18:43:13.137Z,1020.65
2018-12-12T18:44:13.146Z,1020.67
2018-12-12T18:45:13.114Z,1020.65
2018-12-12T18:46:13.108Z,1020.66
2018-12-12T18:47:13.101Z,1020.69
2018-12-12T18:48:13.106Z,1020.63
2018-12-12T18:49:13.123Z,1020.66
2018-12-12T18:50:13.069Z,1020.62
2018-12-12T18:51:13.057Z,1020.66
2018-12-12T18:52:13.075Z,1020.66
2018-12-12T18:53:13.039Z,1020.64
2018-12-12T18:54:13.032Z,1020.63
2018-12-12T18:55:13.040Z,1020.65
2018-12-12T18:56:12.999Z,1020.66
2018-12-12T18:57:13.016Z,1020.63
2018-12-12T18:58:12.991Z,1020.66
2018-12-12T18:59:13.000Z,1020.63
2018-12-12T19:00:12.971Z,1020.64
2018-12-12T19:01:12.969Z,1020.61
2018-12-12T19:02:12.936Z,1020.61
2018-12-12T19:03:12.938Z,1020.63
2018-12-12T19:04:12.936Z,1020.66
2018-12-12T19:05:12.905Z,1020.62
2018-12-12T19:06:12.910Z,1020.67
2018-12-12T19:07:12.895Z,1020.68
2018-12-12T19:08:12.869Z,1020.69
2018-12-12T19:09:12.894Z,1020.72
2018-12-12T19:10:12.864Z,1020.74
2018-12-12T19:11:12.853Z,1020.75
2018-12-12T19:12:12.863Z,1020.74
2018-12-12T19:13:13.288Z,1020.73
2018-12-12T19:14:12.806Z,1020.78
2018-12-12T19:15:12.828Z,1020.81
2018-12-12T19:16:12.799Z,1020.78
2018-12-12T19:17:12.784Z,1020.77
2018-12-12T19:18:12.772Z,1020.79
2018-12-12T19:19:12.762Z,1020.81
2018-12-12T19:20:12.771Z,1020.83
2018-12-12T19:21:12.746Z,1020.85
2018-12-12T19:22:12.748Z,1020.87
2018-12-12T19:23:12.746Z,1020.83
2018-12-12T19:24:12.744Z,1020.87
2018-12-12T19:25:12.735Z,1020.84
2018-12-12T19:26:12.678Z,1020.89
2018-12-12T19:27:12.683Z,1020.84
2018-12-12T19:28:12.659Z,1020.88
2018-12-12T19:29:12.653Z,1020.89
2018-12-12T19:30:13.167Z,1020.88
2018-12-12T19:31:12.629Z,1020.92
2018-12-12T19:32:12.615Z,1020.88
2018-12-12T19:33:12.614Z,1020.88
2018-12-12T19:34:12.589Z,1020.86
2018-12-12T19:35:12.611Z,1020.91
2018-12-12T19:36:12.579Z,1020.93
2018-12-12T19:37:12.562Z,1020.92
2018-12-12T19:38:12.554Z,1020.87
2018-12-12T19:39:12.543Z,1020.85
2018-12-12T19:40:12.530Z,1020.83
2018-12-12T19:41:12.538Z,1020.85
2018-12-12T19:42:12.507Z,1020.88
2018-12-12T19:43:12.508Z,1020.85
2018-12-12T19:44:12.491Z,1020.87
2018-12-12T19:45:12.479Z,1020.89
2018-12-12T19:46:12.478Z,1020.93
2018-12-12T19:47:12.453Z,1020.90
2018-12-12T19:48:12.439Z,1020.89
2018-12-12T19:49:12.431Z,1020.88
2018-12-12T19:50:12.458Z,1020.87
2018-12-12T19:51:12.415Z,1020.83
2018-12-12T19:52:12.453Z,1020.84
2018-12-12T19:53:12.466Z,1020.88
2018-12-12T19:54:12.371Z,1020.89
2018-12-12T19:55:12.387Z,1020.89
2018-12-12T19:56:12.390Z,1020.88
2018-12-12T19:57:12.364Z,1020.92
2018-12-12T19:58:12.353Z,1020.88
2018-12-12T19:59:12.348Z,1020.86
2018-12-12T20:00:12.329Z,1020.85
2018-12-12T20:01:12.310Z,1020.81
2018-12-12T20:02:12.299Z,1020.78
2018-12-12T20:03:12.327Z,1020.83
2018-12-12T20:04:12.274Z,1020.78
2018-12-12T20:05:12.303Z,1020.82
2018-12-12T20:06:12.269Z,1020.82
2018-12-12T20:07:12.237Z,1020.88
2018-12-12T20:08:12.241Z,1020.85
2018-12-12T20:09:13.091Z,1020.86
2018-12-12T20:10:12.212Z,1020.85
2018-12-12T20:11:12.220Z,1020.86
2018-12-12T20:12:12.178Z,1020.86
2018-12-12T20:13:12.184Z,1020.84
2018-12-12T20:14:12.218Z,1020.82
2018-12-12T20:15:12.157Z,1020.82
2018-12-12T20:16:12.166Z,1020.83
2018-12-12T20:17:12.137Z,1020.81
2018-12-12T20:18:12.148Z,1020.78
2018-12-12T20:19:12.104Z,1020.81
2018-12-12T20:20:12.340Z,1020.74
2018-12-12T20:21:12.107Z,1020.80
2018-12-12T20:22:12.084Z,1020.80
2018-12-12T20:23:12.063Z,1020.81
2018-12-12T20:24:12.060Z,1020.80
2018-12-12T20:25:12.046Z,1020.79
2018-12-12T20:26:12.074Z,1020.83
2018-12-12T20:27:12.017Z,1020.84
2018-12-12T20:28:12.013Z,1020.81
2018-12-12T20:29:12.011Z,1020.83
2018-12-12T20:30:11.987Z,1020.82
2018-12-12T20:31:11.999Z,1020.82
2018-12-12T20:32:11.985Z,1020.85
2018-12-12T20:33:11.953Z,1020.86
2018-12-12T20:34:11.949Z,1020.86
2018-12-12T20:35:11.936Z,1020.86
2018-12-12T20:36:11.959Z,1020.86
2018-12-12T20:37:11.922Z,1020.89
2018-12-12T20:38:11.898Z,1020.89
2018-12-12T20:39:11.888Z,1020.85
2018-12-12T20:40:11.886Z,1020.90
2018-12-12T20:41:11.877Z,1020.87
2018-12-12T20:42:11.882Z,1020.87
2018-12-12T20:43:11.869Z,1020.82
2018-12-12T20:44:11.835Z,1020.88
2018-12-12T20:45:11.824Z,1020.87
2018-12-12T20:46:11.822Z,1020.86
2018-12-12T20:47:12.161Z,1020.92
2018-12-12T20:48:11.809Z,1020.92
2018-12-12T20:49:11.795Z,1020.87
2018-12-12T20:50:11.774Z,1020.89
2018-12-12T20:51:11.762Z,1020.86
2018-12-12T20:52:11.782Z,1020.89
2018-12-12T20:53:11.747Z,1020.90
2018-12-12T20:54:11.734Z,1020.92
2018-12-12T20:55:11.729Z,1020.87
2018-12-12T20:56:11.717Z,1020.89
2018-12-12T20:57:11.729Z,1020.91
2018-12-12T20:58:11.686Z,1020.91
2018-12-12T20:59:11.676Z,1020.91
2018-12-12T21:00:11.666Z,1020.92
2018-12-12T21:01:11.664Z,1020.87
2018-12-12T21:02:11.668Z,1020.93
2018-12-12T21:03:11.688Z,1020.94
2018-12-12T21:04:11.627Z,1020.91
2018-12-12T21:05:11.639Z,1020.88
2018-12-12T21:06:11.612Z,1020.92
2018-12-12T21:07:11.629Z,1020.89
2018-12-12T21:08:11.591Z,1020.87
2018-12-12T21:09:11.573Z,1020.88
2018-12-12T21:10:11.564Z,1020.86
2018-12-12T21:11:11.547Z,1020.90
2018-12-12T21:12:11.573Z,1020.89
2018-12-12T21:13:11.555Z,1020.91
2018-12-12T21:14:11.520Z,1020.93
2018-12-12T21:15:11.528Z,1020.93
2018-12-12T21:16:11.494Z,1020.94
2018-12-12T21:17:11.557Z,1020.93
2018-12-12T21:18:11.477Z,1020.93
2018-12-12T21:19:11.476Z,1020.93
2018-12-12T21:20:11.476Z,1020.90
2018-12-12T21:21:11.464Z,1020.90
2018-12-12T21:22:11.581Z,1020.87
2018-12-12T21:23:11.431Z,1020.87
2018-12-12T21:24:11.433Z,1020.84
2018-12-12T21:25:11.462Z,1020.90
2018-12-12T21:26:11.396Z,1020.87
2018-12-12T21:27:11.402Z,1020.89
2018-12-12T21:28:11.380Z,1020.89
2018-12-12T21:29:11.367Z,1020.89
2018-12-12T21:30:17.042Z,1020.85
2018-12-12T21:31:12.331Z,1020.86
2018-12-12T21:32:11.350Z,1020.82
2018-12-12T21:33:11.314Z,1020.85
2018-12-12T21:34:11.309Z,1020.83
2018-12-12T21:35:11.329Z,1020.86
2018-12-12T21:36:11.289Z,1020.84
2018-12-12T21:37:11.266Z,1020.79
2018-12-12T21:38:11.278Z,1020.80
2018-12-12T21:39:11.256Z,1020.82
2018-12-12T21:40:11.261Z,1020.80
2018-12-12T21:41:11.259Z,1020.79
2018-12-12T21:42:11.284Z,1020.80
2018-12-12T21:43:11.201Z,1020.73
2018-12-12T21:44:11.195Z,1020.79
2018-12-12T21:45:11.188Z,1020.76
2018-12-12T21:46:11.179Z,1020.72
2018-12-12T21:47:11.211Z,1020.69
2018-12-12T21:48:11.146Z,1020.71
2018-12-12T21:49:11.139Z,1020.72
2018-12-12T21:50:11.132Z,1020.68
2018-12-12T21:51:11.162Z,1020.66
2018-12-12T21:52:11.779Z,1020.69
2018-12-12T21:53:11.120Z,1020.68
2018-12-12T21:54:11.118Z,1020.66
2018-12-12T21:55:11.075Z,1020.63
2018-12-12T21:56:11.086Z,1020.68
2018-12-12T21:57:11.104Z,1020.65
2018-12-12T21:58:11.076Z,1020.64
2018-12-12T21:59:11.029Z,1020.64
2018-12-12T22:00:11.033Z,1020.62
2018-12-12T22:01:11.009Z,1020.66
2018-12-12T22:02:11.010Z,1020.66
2018-12-12T22:03:10.996Z,1020.67
2018-12-12T22:04:11.012Z,1020.66
2018-12-12T22:05:10.962Z,1020.63
2018-12-12T22:06:10.958Z,1020.62
2018-12-12T22:07:10.957Z,1020.61
2018-12-12T22:08:10.938Z,1020.61
2018-12-12T22:09:10.945Z,1020.63
2018-12-12T22:10:10.908Z,1020.62
2018-12-12T22:11:10.898Z,1020.64
2018-12-12T22:12:10.887Z,1020.68
2018-12-12T22:13:10.880Z,1020.68
2018-12-12T22:14:10.903Z,1020.69
2018-12-12T22:15:11.010Z,1020.67
2018-12-12T22:16:11.264Z,1020.70
2018-12-12T22:17:10.838Z,1020.66
2018-12-12T22:18:10.826Z,1020.67
2018-12-12T22:19:10.841Z,1020.65
2018-12-12T22:20:10.809Z,1020.63
2018-12-12T22:21:10.813Z,1020.64
2018-12-12T22:22:10.778Z,1020.63
2018-12-12T22:23:10.768Z,1020.63
2018-12-12T22:24:10.763Z,1020.64
2018-12-12T22:25:10.772Z,1020.63
2018-12-12T22:26:10.769Z,1020.64
2018-12-12T22:27:10.739Z,1020.64
2018-12-12T22:28:10.716Z,1020.65
2018-12-12T22:29:10.711Z,1020.63
2018-12-12T22:30:10.764Z,1020.65
2018-12-12T22:31:10.706Z,1020.66
2018-12-12T22:32:10.692Z,1020.60
2018-12-12T22:33:10.659Z,1020.67
2018-12-12T22:34:10.735Z,1020.60
2018-12-12T22:35:10.759Z,1020.62
2018-12-12T22:36:14.151Z,1020.61
2018-12-12T22:37:10.684Z,1020.60
2018-12-12T22:38:10.629Z,1020.56
2018-12-12T22:39:10.659Z,1020.60
2018-12-12T22:40:10.613Z,1020.57
2018-12-12T22:41:10.858Z,1020.56
2018-12-12T22:42:10.656Z,1020.54
2018-12-12T22:43:10.629Z,1020.54
2018-12-12T22:44:10.571Z,1020.56
2018-12-12T22:45:10.565Z,1020.59
2018-12-12T22:46:10.550Z,1020.62
2018-12-12T22:47:10.517Z,1020.59
2018-12-12T22:48:10.538Z,1020.56
2018-12-12T22:49:10.491Z,1020.56
2018-12-12T22:50:10.492Z,1020.56
2018-12-12T22:51:10.470Z,1020.61
2018-12-12T22:52:10.459Z,1020.59
2018-12-12T22:53:10.469Z,1020.61
2018-12-12T22:54:10.467Z,1020.58
2018-12-12T22:55:10.428Z,1020.60
2018-12-12T22:56:10.410Z,1020.58
2018-12-12T22:57:10.406Z,1020.54
2018-12-12T22:58:10.400Z,1020.53
2018-12-12T22:59:10.489Z,1020.51
2018-12-12T23:00:10.370Z,1020.52
2018-12-12T23:01:10.358Z,1020.55
2018-12-12T23:02:10.342Z,1020.52
2018-12-12T23:03:10.327Z,1020.52
2018-12-12T23:04:10.930Z,1020.58
2018-12-12T23:05:10.311Z,1020.53
2018-12-12T23:06:10.341Z,1020.57
2018-12-12T23:07:10.309Z,1020.54
2018-12-12T23:08:10.285Z,1020.58
2018-12-12T23:09:10.293Z,1020.56
2018-12-12T23:10:10.545Z,1020.53
2018-12-12T23:11:10.258Z,1020.54
2018-12-12T23:12:10.236Z,1020.55
2018-12-12T23:13:10.226Z,1020.59
2018-12-12T23:14:10.217Z,1020.55
2018-12-12T23:15:10.218Z,1020.57
2018-12-12T23:16:10.188Z,1020.58
2018-12-12T23:17:10.196Z,1020.56
2018-12-12T23:18:10.180Z,1020.57
2018-12-12T23:19:10.194Z,1020.56
2018-12-12T23:20:10.175Z,1020.61
2018-12-12T23:21:10.138Z,1020.58
2018-12-12T23:22:10.125Z,1020.59
2018-12-12T23:23:10.113Z,1020.60
2018-12-12T23:24:10.111Z,1020.57
2018-12-12T23:25:10.158Z,1020.59
2018-12-12T23:26:10.080Z,1020.54
2018-12-12T23:27:10.070Z,1020.58
2018-12-12T23:28:10.280Z,1020.58
2018-12-12T23:29:10.052Z,1020.54
2018-12-12T23:30:10.043Z,1020.58
2018-12-12T23:31:10.064Z,1020.56
2018-12-12T23:32:10.026Z,1020.51
2018-12-12T23:33:10.011Z,1020.53
2018-12-12T23:34:09.991Z,1020.49
2018-12-12T23:35:09.983Z,1020.47
2018-12-12T23:36:10.631Z,1020.47
2018-12-12T23:37:09.960Z,1020.47
2018-12-12T23:38:09.965Z,1020.41
2018-12-12T23:39:09.947Z,1020.39
2018-12-12T23:40:09.926Z,1020.43
2018-12-12T23:41:09.940Z,1020.45
2018-12-12T23:42:09.938Z,1020.43
2018-12-12T23:43:09.900Z,1020.44
2018-12-12T23:44:09.895Z,1020.46
2018-12-12T23:45:09.884Z,1020.43
2018-12-12T23:46:09.883Z,1020.44
2018-12-12T23:47:09.868Z,1020.42
2018-12-12T23:48:09.865Z,1020.40
2018-12-12T23:49:09.832Z,1020.41
2018-12-12T23:50:09.833Z,1020.42
2018-12-12T23:51:09.818Z,1020.38
2018-12-12T23:52:09.810Z,1020.38
2018-12-12T23:53:09.822Z,1020.42
2018-12-12T23:54:09.778Z,1020.42
2018-12-12T23:55:09.766Z,1020.39
2018-12-12T23:56:09.765Z,1020.40
2018-12-12T23:57:09.766Z,1020.42
2018-12-12T23:58:09.795Z,1020.37
2018-12-12T23:59:09.724Z,1020.36
